createdAt,value
2018-07-02T00:00:16.288Z,12.88
2018-07-02T00:01:16.318Z,12.79
2018-07-02T00:02:16.513Z,12.71
2018-07-02T00:03:16.862Z,12.71
2018-07-02T00:04:16.210Z,12.68
2018-07-02T00:05:16.558Z,12.67
2018-07-02T00:06:16.852Z,12.68
2018-07-02T00:07:17.197Z,12.66
2018-07-02T00:08:16.541Z,12.64
2018-07-02T00:09:16.857Z,12.66
2018-07-02T00:10:17.189Z,12.61
2018-07-02T00:11:16.241Z,12.53
2018-07-02T00:12:16.591Z,12.56
2018-07-02T00:13:16.905Z,12.49
2018-07-02T00:14:16.257Z,12.46
2018-07-02T00:15:16.317Z,12.40
2018-07-02T00:16:16.652Z,12.33
2018-07-02T00:17:16.972Z,12.28
2018-07-02T00:18:16.451Z,12.26
2018-07-02T00:19:16.796Z,12.23
2018-07-02T00:20:17.109Z,12.20
2018-07-02T00:21:17.202Z,12.18
2018-07-02T00:22:16.541Z,12.18
2018-07-02T00:23:16.906Z,12.22
2018-07-02T00:24:16.206Z,12.18
2018-07-02T00:25:16.485Z,12.22
2018-07-02T00:26:16.781Z,12.19
2018-07-02T00:27:17.128Z,12.16
2018-07-02T00:28:16.454Z,12.12
2018-07-02T00:29:16.750Z,12.11
2018-07-02T00:30:17.095Z,12.06
2018-07-02T00:31:17.174Z,12.01
2018-07-02T00:32:16.458Z,11.99
2018-07-02T00:33:16.744Z,11.98
2018-07-02T00:34:17.083Z,11.96
2018-07-02T00:35:16.424Z,11.96
2018-07-02T00:36:17.083Z,11.93
2018-07-02T00:37:16.391Z,11.86
2018-07-02T00:38:16.695Z,11.85
2018-07-02T00:39:17.061Z,11.78
2018-07-02T00:40:16.376Z,11.71
2018-07-02T00:41:16.417Z,11.71
2018-07-02T00:42:16.703Z,11.70
2018-07-02T00:43:17.037Z,11.68
2018-07-02T00:44:16.998Z,11.67
2018-07-02T00:45:16.352Z,11.74
2018-07-02T00:46:16.674Z,11.78
2018-07-02T00:47:16.985Z,11.80
2018-07-02T00:48:17.189Z,11.85
2018-07-02T00:49:16.518Z,11.84
2018-07-02T00:50:16.859Z,11.78
2018-07-02T00:51:16.929Z,11.81
2018-07-02T00:52:16.253Z,11.80
2018-07-02T00:53:16.573Z,11.71
2018-07-02T00:54:16.941Z,11.64
2018-07-02T00:55:16.244Z,11.61
2018-07-02T00:56:16.568Z,11.58
2018-07-02T00:57:16.897Z,11.55
2018-07-02T00:58:16.219Z,11.58
2018-07-02T00:59:16.541Z,11.53
2018-07-02T01:00:16.865Z,11.53
2018-07-02T01:01:16.925Z,11.50
2018-07-02T01:02:16.262Z,11.47
2018-07-02T01:03:16.893Z,11.42
2018-07-02T01:04:16.365Z,11.43
2018-07-02T01:05:16.661Z,11.40
2018-07-02T01:06:16.999Z,11.39
2018-07-02T01:07:16.311Z,11.42
2018-07-02T01:08:16.648Z,11.39
2018-07-02T01:09:16.963Z,11.39
2018-07-02T01:10:16.277Z,11.36
2018-07-02T01:11:16.327Z,11.36
2018-07-02T01:12:16.652Z,11.34
2018-07-02T01:13:16.998Z,11.31
2018-07-02T01:14:17.170Z,11.26
2018-07-02T01:15:16.495Z,11.22
2018-07-02T01:16:16.825Z,11.20
2018-07-02T01:17:17.147Z,11.19
2018-07-02T01:18:16.459Z,11.17
2018-07-02T01:19:16.768Z,11.13
2018-07-02T01:20:17.113Z,11.12
2018-07-02T01:21:16.206Z,11.07
2018-07-02T01:22:16.541Z,11.09
2018-07-02T01:23:16.848Z,11.07
2018-07-02T01:24:16.882Z,11.07
2018-07-02T01:25:16.215Z,11.02
2018-07-02T01:26:16.552Z,11.03
2018-07-02T01:27:16.964Z,11.00
2018-07-02T01:28:16.274Z,11.02
2018-07-02T01:29:16.614Z,10.98
2018-07-02T01:30:17.190Z,10.95
2018-07-02T01:31:16.243Z,10.92
2018-07-02T01:32:16.581Z,10.89
2018-07-02T01:33:16.902Z,10.89
2018-07-02T01:34:16.206Z,10.82
2018-07-02T01:35:16.822Z,10.82
2018-07-02T01:36:17.142Z,10.74
2018-07-02T01:37:16.468Z,10.70
2018-07-02T01:38:16.784Z,10.70
2018-07-02T01:39:17.131Z,10.68
2018-07-02T01:40:16.625Z,10.70
2018-07-02T01:41:16.685Z,10.65
2018-07-02T01:42:16.926Z,10.57
2018-07-02T01:43:16.229Z,10.52
2018-07-02T01:44:16.552Z,10.48
2018-07-02T01:45:16.872Z,10.43
2018-07-02T01:46:17.177Z,10.45
2018-07-02T01:47:16.527Z,10.48
2018-07-02T01:48:16.830Z,10.43
2018-07-02T01:49:16.997Z,10.40
2018-07-02T01:50:16.305Z,10.39
2018-07-02T01:51:16.359Z,10.26
2018-07-02T01:52:16.774Z,10.24
2018-07-02T01:53:17.069Z,10.23
2018-07-02T01:54:16.418Z,10.14
2018-07-02T01:55:16.885Z,10.12
2018-07-02T01:56:17.189Z,10.09
2018-07-02T01:57:16.513Z,10.08
2018-07-02T01:58:16.830Z,10.06
2018-07-02T01:59:17.005Z,10.05
2018-07-02T02:00:16.320Z,10.02
2018-07-02T02:01:16.377Z,10.02
2018-07-02T02:02:16.684Z,9.98
2018-07-02T02:03:16.711Z,9.92
2018-07-02T02:04:17.017Z,9.89
2018-07-02T02:05:16.313Z,9.84
2018-07-02T02:06:16.623Z,9.80
2018-07-02T02:07:16.985Z,9.81
2018-07-02T02:08:16.288Z,9.80
2018-07-02T02:09:16.582Z,9.75
2018-07-02T02:10:16.893Z,9.74
2018-07-02T02:11:16.929Z,9.76
2018-07-02T02:12:16.207Z,9.75
2018-07-02T02:13:16.543Z,9.76
2018-07-02T02:14:16.848Z,9.74
2018-07-02T02:15:16.381Z,9.75
2018-07-02T02:16:16.665Z,9.74
2018-07-02T02:17:16.954Z,9.72
2018-07-02T02:18:16.265Z,9.75
2018-07-02T02:19:16.229Z,9.75
2018-07-02T02:20:16.539Z,9.76
2018-07-02T02:21:16.570Z,9.76
2018-07-02T02:22:16.865Z,9.75
2018-07-02T02:23:17.173Z,9.72
2018-07-02T02:24:16.484Z,9.72
2018-07-02T02:25:16.781Z,9.69
2018-07-02T02:26:17.072Z,9.66
2018-07-02T02:27:16.385Z,9.69
2018-07-02T02:28:16.782Z,9.61
2018-07-02T02:29:17.070Z,9.62
2018-07-02T02:30:16.373Z,9.62
2018-07-02T02:31:16.414Z,9.65
2018-07-02T02:32:16.729Z,9.72
2018-07-02T02:33:17.112Z,9.74
2018-07-02T02:34:16.407Z,9.71
2018-07-02T02:35:16.703Z,9.68
2018-07-02T02:36:16.835Z,9.64
2018-07-02T02:37:17.141Z,9.68
2018-07-02T02:38:16.502Z,9.65
2018-07-02T02:39:16.993Z,9.59
2018-07-02T02:40:16.444Z,9.53
2018-07-02T02:41:16.497Z,9.54
2018-07-02T02:42:16.795Z,9.51
2018-07-02T02:43:17.394Z,9.55
2018-07-02T02:44:16.606Z,9.53
2018-07-02T02:45:16.900Z,9.54
2018-07-02T02:46:16.202Z,9.54
2018-07-02T02:47:16.508Z,9.53
2018-07-02T02:48:16.810Z,9.51
2018-07-02T02:49:17.149Z,9.50
2018-07-02T02:50:16.468Z,9.50
2018-07-02T02:51:16.520Z,9.51
2018-07-02T02:52:16.653Z,9.47
2018-07-02T02:53:16.951Z,9.51
2018-07-02T02:54:16.408Z,9.51
2018-07-02T02:55:16.712Z,9.48
2018-07-02T02:56:16.249Z,9.47
2018-07-02T02:57:16.568Z,9.47
2018-07-02T02:58:16.859Z,9.55
2018-07-02T02:59:17.148Z,9.51
2018-07-02T03:00:16.453Z,9.45
2018-07-02T03:01:16.504Z,9.41
2018-07-02T03:02:16.798Z,9.45
2018-07-02T03:03:17.079Z,9.45
2018-07-02T03:04:16.388Z,9.41
2018-07-02T03:05:16.423Z,9.44
2018-07-02T03:06:16.764Z,9.44
2018-07-02T03:07:17.084Z,9.44
2018-07-02T03:08:16.397Z,9.44
2018-07-02T03:09:16.599Z,9.43
2018-07-02T03:10:16.899Z,9.40
2018-07-02T03:11:16.946Z,9.38
2018-07-02T03:12:16.257Z,9.38
2018-07-02T03:13:16.545Z,9.36
2018-07-02T03:14:16.843Z,9.38
2018-07-02T03:15:17.178Z,9.37
2018-07-02T03:16:16.473Z,9.36
2018-07-02T03:17:16.768Z,9.36
2018-07-02T03:18:16.966Z,9.34
2018-07-02T03:19:16.268Z,9.36
2018-07-02T03:20:16.653Z,9.33
2018-07-02T03:21:16.651Z,9.36
2018-07-02T03:22:17.191Z,9.33
2018-07-02T03:23:16.830Z,9.33
2018-07-02T03:24:17.392Z,9.33
2018-07-02T03:25:16.688Z,9.33
2018-07-02T03:26:16.668Z,9.30
2018-07-02T03:27:16.976Z,9.29
2018-07-02T03:28:16.291Z,9.24
2018-07-02T03:29:16.578Z,9.27
2018-07-02T03:30:16.579Z,9.29
2018-07-02T03:31:16.620Z,9.29
2018-07-02T03:32:16.916Z,9.26
2018-07-02T03:33:16.218Z,9.26
2018-07-02T03:34:16.680Z,9.26
2018-07-02T03:35:16.978Z,9.24
2018-07-02T03:36:16.289Z,9.24
2018-07-02T03:37:16.582Z,9.24
2018-07-02T03:38:17.013Z,9.29
2018-07-02T03:39:16.342Z,9.27
2018-07-02T03:40:16.629Z,9.29
2018-07-02T03:41:16.709Z,9.29
2018-07-02T03:42:16.278Z,9.24
2018-07-02T03:43:16.581Z,9.26
2018-07-02T03:44:16.882Z,9.24
2018-07-02T03:45:17.163Z,9.29
2018-07-02T03:46:16.287Z,9.30
2018-07-02T03:47:16.583Z,9.27
2018-07-02T03:48:16.871Z,9.24
2018-07-02T03:49:17.492Z,9.24
2018-07-02T03:50:16.658Z,9.22
2018-07-02T03:51:16.722Z,9.22
2018-07-02T03:52:17.015Z,9.22
2018-07-02T03:53:16.353Z,9.23
2018-07-02T03:54:17.361Z,9.24
2018-07-02T03:55:16.670Z,9.30
2018-07-02T03:56:16.960Z,9.27
2018-07-02T03:57:16.267Z,9.23
2018-07-02T03:58:16.563Z,9.20
2018-07-02T03:59:16.870Z,9.19
2018-07-02T04:00:17.188Z,9.16
2018-07-02T04:01:16.299Z,9.15
2018-07-02T04:02:16.685Z,9.15
2018-07-02T04:03:16.973Z,9.15
2018-07-02T04:04:16.280Z,9.17
2018-07-02T04:05:16.604Z,9.17
2018-07-02T04:06:16.941Z,9.24
2018-07-02T04:07:16.226Z,9.23
2018-07-02T04:08:16.542Z,9.23
2018-07-02T04:09:16.857Z,9.26
2018-07-02T04:10:17.432Z,9.24
2018-07-02T04:11:17.180Z,9.27
2018-07-02T04:12:16.468Z,9.27
2018-07-02T04:13:16.774Z,9.26
2018-07-02T04:14:16.956Z,9.30
2018-07-02T04:15:16.267Z,9.34
2018-07-02T04:16:16.592Z,9.38
2018-07-02T04:17:16.906Z,9.45
2018-07-02T04:18:16.182Z,9.48
2018-07-02T04:19:16.662Z,9.53
2018-07-02T04:20:16.204Z,9.58
2018-07-02T04:21:16.269Z,9.58
2018-07-02T04:22:16.460Z,9.59
2018-07-02T04:23:16.754Z,9.66
2018-07-02T04:24:17.400Z,9.62
2018-07-02T04:25:16.703Z,9.71
2018-07-02T04:26:17.489Z,9.72
2018-07-02T04:27:16.802Z,9.74
2018-07-02T04:28:17.092Z,9.80
2018-07-02T04:29:16.273Z,9.80
2018-07-02T04:30:16.868Z,9.88
2018-07-02T04:31:16.648Z,9.95
2018-07-02T04:32:16.993Z,10.01
2018-07-02T04:33:16.307Z,10.01
2018-07-02T04:34:16.690Z,10.08
2018-07-02T04:35:17.122Z,10.08
2018-07-02T04:36:16.658Z,10.16
2018-07-02T04:37:16.956Z,10.20
2018-07-02T04:38:16.249Z,10.27
2018-07-02T04:39:16.544Z,10.30
2018-07-02T04:40:16.961Z,10.33
2018-07-02T04:41:17.015Z,10.37
2018-07-02T04:42:16.312Z,10.43
2018-07-02T04:43:16.641Z,10.43
2018-07-02T04:44:16.967Z,10.44
2018-07-02T04:45:16.398Z,10.52
2018-07-02T04:46:17.023Z,10.64
2018-07-02T04:47:17.131Z,10.68
2018-07-02T04:48:16.959Z,10.68
2018-07-02T04:49:17.142Z,10.68
2018-07-02T04:50:16.547Z,10.75
2018-07-02T04:51:16.600Z,10.81
2018-07-02T04:52:16.446Z,10.87
2018-07-02T04:53:16.634Z,10.99
2018-07-02T04:54:16.527Z,10.98
2018-07-02T04:55:17.035Z,11.03
2018-07-02T04:56:16.544Z,11.10
2018-07-02T04:57:16.730Z,11.22
2018-07-02T04:58:17.042Z,11.17
2018-07-02T04:59:16.963Z,11.25
2018-07-02T05:00:16.391Z,11.30
2018-07-02T05:01:16.443Z,11.27
2018-07-02T05:02:16.746Z,11.27
2018-07-02T05:03:17.011Z,11.31
2018-07-02T05:04:16.268Z,11.49
2018-07-02T05:05:16.535Z,11.49
2018-07-02T05:06:16.803Z,11.51
2018-07-02T05:07:17.061Z,11.61
2018-07-02T05:08:16.321Z,11.63
2018-07-02T05:09:16.584Z,11.67
2018-07-02T05:10:16.855Z,11.74
2018-07-02T05:11:16.901Z,11.81
2018-07-02T05:12:17.163Z,11.81
2018-07-02T05:13:16.433Z,11.84
2018-07-02T05:14:16.706Z,11.98
2018-07-02T05:15:16.982Z,12.02
2018-07-02T05:16:16.253Z,12.12
2018-07-02T05:17:16.545Z,12.09
2018-07-02T05:18:16.806Z,12.09
2018-07-02T05:19:17.067Z,12.13
2018-07-02T05:20:16.340Z,12.15
2018-07-02T05:21:16.385Z,12.26
2018-07-02T05:22:16.639Z,12.28
2018-07-02T05:23:16.906Z,12.37
2018-07-02T05:24:17.165Z,12.43
2018-07-02T05:25:16.427Z,12.49
2018-07-02T05:26:16.691Z,12.51
2018-07-02T05:27:16.951Z,12.63
2018-07-02T05:28:16.213Z,12.57
2018-07-02T05:29:16.483Z,12.60
2018-07-02T05:30:17.073Z,12.63
2018-07-02T05:31:16.793Z,12.64
2018-07-02T05:32:17.055Z,12.78
2018-07-02T05:33:16.318Z,12.85
2018-07-02T05:34:16.578Z,12.98
2018-07-02T05:35:16.858Z,13.04
2018-07-02T05:36:17.145Z,13.08
2018-07-02T05:37:16.412Z,13.18
2018-07-02T05:38:16.677Z,13.21
2018-07-02T05:39:16.938Z,13.19
2018-07-02T05:40:17.208Z,13.30
2018-07-02T05:41:16.261Z,13.42
2018-07-02T05:42:16.521Z,13.51
2018-07-02T05:43:16.787Z,13.58
2018-07-02T05:44:17.051Z,13.57
2018-07-02T05:45:16.341Z,13.71
2018-07-02T05:46:16.626Z,13.71
2018-07-02T05:47:16.900Z,13.67
2018-07-02T05:48:17.158Z,13.64
2018-07-02T05:49:16.419Z,13.61
2018-07-02T05:50:16.693Z,13.70
2018-07-02T05:51:16.743Z,13.78
2018-07-02T05:52:17.019Z,13.77
2018-07-02T05:53:16.290Z,14.00
2018-07-02T05:54:16.565Z,14.12
2018-07-02T05:55:16.832Z,14.12
2018-07-02T05:56:17.102Z,13.95
2018-07-02T05:57:16.367Z,14.00
2018-07-02T05:58:16.626Z,14.32
2018-07-02T05:59:16.897Z,14.29
2018-07-02T06:00:17.265Z,14.32
2018-07-02T06:01:16.223Z,14.29
2018-07-02T06:02:16.501Z,14.33
2018-07-02T06:03:16.761Z,14.28
2018-07-02T06:04:17.030Z,14.28
2018-07-02T06:05:16.292Z,14.32
2018-07-02T06:06:16.558Z,14.28
2018-07-02T06:07:16.818Z,14.29
2018-07-02T06:08:17.091Z,14.30
2018-07-02T06:09:16.360Z,14.33
2018-07-02T06:10:16.625Z,14.44
2018-07-02T06:11:16.683Z,14.46
2018-07-02T06:12:16.942Z,14.39
2018-07-02T06:13:16.239Z,14.39
2018-07-02T06:14:16.592Z,14.40
2018-07-02T06:15:16.889Z,14.55
2018-07-02T06:16:17.159Z,14.55
2018-07-02T06:17:16.436Z,14.53
2018-07-02T06:18:16.719Z,14.50
2018-07-02T06:19:17.020Z,14.59
2018-07-02T06:20:16.286Z,14.66
2018-07-02T06:21:16.335Z,14.67
2018-07-02T06:22:16.864Z,14.70
2018-07-02T06:23:17.132Z,14.64
2018-07-02T06:24:16.398Z,14.59
2018-07-02T06:25:16.679Z,14.64
2018-07-02T06:26:16.941Z,14.62
2018-07-02T06:27:16.189Z,14.88
2018-07-02T06:28:16.449Z,14.94
2018-07-02T06:29:16.718Z,14.92
2018-07-02T06:30:17.006Z,14.90
2018-07-02T06:31:17.029Z,14.90
2018-07-02T06:32:16.294Z,15.14
2018-07-02T06:33:16.556Z,15.18
2018-07-02T06:34:16.844Z,15.19
2018-07-02T06:35:17.109Z,15.41
2018-07-02T06:36:16.369Z,15.45
2018-07-02T06:37:16.638Z,15.33
2018-07-02T06:38:16.903Z,15.42
2018-07-02T06:39:17.160Z,15.53
2018-07-02T06:40:16.437Z,15.53
2018-07-02T06:41:16.495Z,15.64
2018-07-02T06:42:16.759Z,15.59
2018-07-02T06:43:17.033Z,15.56
2018-07-02T06:44:16.289Z,15.56
2018-07-02T06:45:16.560Z,15.57
2018-07-02T06:46:16.822Z,15.63
2018-07-02T06:47:17.092Z,15.71
2018-07-02T06:48:16.361Z,15.81
2018-07-02T06:49:16.617Z,15.81
2018-07-02T06:50:16.898Z,16.09
2018-07-02T06:51:16.933Z,16.21
2018-07-02T06:52:16.205Z,16.27
2018-07-02T06:53:16.467Z,16.50
2018-07-02T06:54:16.728Z,16.45
2018-07-02T06:55:17.002Z,16.40
2018-07-02T06:56:16.256Z,16.22
2018-07-02T06:57:16.509Z,16.22
2018-07-02T06:58:16.769Z,16.25
2018-07-02T06:59:17.022Z,16.36
2018-07-02T07:00:16.301Z,16.42
2018-07-02T07:01:16.332Z,16.46
2018-07-02T07:02:16.594Z,16.55
2018-07-02T07:03:16.864Z,16.59
2018-07-02T07:04:17.130Z,16.67
2018-07-02T07:05:16.400Z,16.78
2018-07-02T07:06:16.699Z,16.84
2018-07-02T07:07:16.971Z,16.83
2018-07-02T07:08:16.240Z,16.94
2018-07-02T07:09:16.506Z,16.94
2018-07-02T07:10:16.768Z,16.77
2018-07-02T07:11:16.867Z,16.74
2018-07-02T07:12:17.139Z,16.91
2018-07-02T07:13:16.397Z,16.91
2018-07-02T07:14:16.660Z,16.88
2018-07-02T07:15:16.933Z,17.13
2018-07-02T07:16:17.204Z,17.38
2018-07-02T07:17:16.470Z,17.31
2018-07-02T07:18:16.724Z,17.49
2018-07-02T07:19:16.996Z,17.43
2018-07-02T07:20:16.253Z,17.46
2018-07-02T07:21:16.304Z,17.48
2018-07-02T07:22:16.568Z,17.52
2018-07-02T07:23:16.828Z,17.69
2018-07-02T07:24:17.375Z,17.59
2018-07-02T07:25:16.642Z,17.46
2018-07-02T07:26:16.912Z,17.48
2018-07-02T07:27:17.172Z,17.42
2018-07-02T07:28:16.439Z,17.50
2018-07-02T07:29:16.696Z,17.69
2018-07-02T07:30:16.959Z,17.69
2018-07-02T07:31:17.011Z,18.01
2018-07-02T07:32:16.273Z,18.10
2018-07-02T07:33:16.532Z,18.01
2018-07-02T07:34:16.795Z,17.93
2018-07-02T07:35:17.074Z,17.91
2018-07-02T07:36:16.339Z,18.01
2018-07-02T07:37:16.602Z,18.11
2018-07-02T07:38:16.916Z,18.21
2018-07-02T07:39:17.191Z,18.18
2018-07-02T07:40:16.466Z,18.12
2018-07-02T07:41:16.517Z,18.14
2018-07-02T07:42:16.773Z,18.38
2018-07-02T07:43:17.037Z,18.54
2018-07-02T07:44:16.295Z,18.63
2018-07-02T07:45:16.555Z,18.62
2018-07-02T07:46:16.812Z,18.94
2018-07-02T07:47:17.074Z,18.67
2018-07-02T07:48:16.340Z,18.49
2018-07-02T07:49:16.600Z,18.79
2018-07-02T07:50:16.871Z,18.98
2018-07-02T07:51:17.035Z,18.97
2018-07-02T07:52:16.292Z,18.94
2018-07-02T07:53:16.596Z,18.83
2018-07-02T07:54:17.019Z,18.69
2018-07-02T07:55:16.276Z,18.80
2018-07-02T07:56:16.544Z,19.03
2018-07-02T07:57:16.818Z,19.13
2018-07-02T07:58:17.085Z,19.24
2018-07-02T07:59:16.352Z,19.01
2018-07-02T08:00:16.612Z,18.98
2018-07-02T08:01:16.663Z,18.86
2018-07-02T08:02:16.938Z,18.90
2018-07-02T08:03:16.205Z,19.83
2018-07-02T08:04:16.476Z,19.99
2018-07-02T08:05:16.806Z,19.84
2018-07-02T08:06:17.104Z,20.10
2018-07-02T08:07:16.369Z,20.13
2018-07-02T08:08:16.624Z,20.18
2018-07-02T08:09:16.882Z,20.08
2018-07-02T08:10:17.142Z,19.91
2018-07-02T08:11:17.192Z,19.94
2018-07-02T08:12:16.461Z,19.96
2018-07-02T08:13:16.729Z,20.51
2018-07-02T08:14:16.988Z,20.54
2018-07-02T08:15:16.268Z,20.38
2018-07-02T08:16:16.521Z,20.25
2018-07-02T08:17:16.782Z,20.25
2018-07-02T08:18:17.038Z,19.86
2018-07-02T08:19:16.305Z,19.91
2018-07-02T08:20:16.699Z,19.81
2018-07-02T08:21:16.735Z,19.96
2018-07-02T08:22:16.990Z,20.13
2018-07-02T08:23:16.249Z,20.20
2018-07-02T08:24:16.509Z,20.35
2018-07-02T08:25:16.791Z,20.39
2018-07-02T08:26:17.072Z,20.82
2018-07-02T08:27:16.378Z,21.00
2018-07-02T08:28:16.653Z,21.29
2018-07-02T08:29:16.918Z,21.38
2018-07-02T08:30:17.191Z,21.18
2018-07-02T08:31:16.240Z,21.37
2018-07-02T08:32:16.509Z,21.44
2018-07-02T08:33:16.787Z,21.42
2018-07-02T08:34:17.134Z,20.62
2018-07-02T08:35:16.397Z,21.10
2018-07-02T08:36:16.658Z,21.58
2018-07-02T08:37:16.932Z,21.72
2018-07-02T08:38:17.192Z,21.48
2018-07-02T08:39:16.456Z,21.91
2018-07-02T08:40:16.739Z,22.13
2018-07-02T08:41:16.758Z,21.40
2018-07-02T08:42:17.024Z,20.89
2018-07-02T08:43:16.305Z,21.41
2018-07-02T08:44:16.577Z,21.45
2018-07-02T08:45:16.834Z,21.54
2018-07-02T08:46:17.092Z,21.23
2018-07-02T08:47:16.351Z,20.82
2018-07-02T08:48:16.609Z,20.92
2018-07-02T08:49:16.881Z,21.15
2018-07-02T08:50:17.157Z,21.66
2018-07-02T08:51:16.196Z,22.03
2018-07-02T08:52:16.449Z,22.30
2018-07-02T08:53:16.706Z,22.65
2018-07-02T08:54:16.964Z,22.57
2018-07-02T08:55:16.233Z,22.17
2018-07-02T08:56:16.499Z,21.25
2018-07-02T08:57:16.754Z,21.69
2018-07-02T08:58:17.067Z,22.03
2018-07-02T08:59:16.466Z,22.45
2018-07-02T09:00:16.721Z,22.24
2018-07-02T09:01:16.772Z,22.09
2018-07-02T09:02:17.055Z,22.24
2018-07-02T09:03:16.312Z,22.37
2018-07-02T09:04:16.577Z,22.27
2018-07-02T09:05:16.841Z,22.53
2018-07-02T09:06:17.106Z,22.00
2018-07-02T09:07:16.365Z,22.07
2018-07-02T09:08:16.623Z,22.67
2018-07-02T09:09:16.881Z,23.09
2018-07-02T09:10:17.147Z,23.05
2018-07-02T09:11:17.179Z,23.05
2018-07-02T09:12:16.439Z,22.53
2018-07-02T09:13:16.696Z,23.03
2018-07-02T09:14:16.959Z,23.03
2018-07-02T09:15:16.219Z,23.65
2018-07-02T09:16:16.477Z,24.05
2018-07-02T09:17:16.746Z,23.95
2018-07-02T09:18:17.001Z,23.89
2018-07-02T09:19:16.260Z,23.54
2018-07-02T09:20:16.532Z,22.35
2018-07-02T09:21:16.607Z,22.54
2018-07-02T09:22:16.882Z,23.32
2018-07-02T09:23:17.139Z,22.47
2018-07-02T09:24:16.400Z,21.82
2018-07-02T09:25:16.738Z,21.61
2018-07-02T09:26:16.994Z,22.24
2018-07-02T09:27:16.257Z,22.93
2018-07-02T09:28:16.515Z,23.56
2018-07-02T09:29:16.782Z,23.61
2018-07-02T09:30:17.061Z,23.60
2018-07-02T09:31:17.101Z,23.41
2018-07-02T09:32:16.437Z,22.82
2018-07-02T09:33:16.762Z,23.61
2018-07-02T09:34:17.025Z,24.24
2018-07-02T09:35:16.286Z,24.72
2018-07-02T09:36:16.553Z,24.43
2018-07-02T09:37:16.807Z,24.39
2018-07-02T09:38:17.075Z,24.46
2018-07-02T09:39:16.363Z,23.87
2018-07-02T09:40:16.701Z,23.68
2018-07-02T09:41:16.748Z,23.29
2018-07-02T09:42:17.012Z,23.56
2018-07-02T09:43:16.279Z,23.99
2018-07-02T09:44:16.666Z,23.96
2018-07-02T09:45:16.933Z,23.65
2018-07-02T09:46:16.198Z,23.74
2018-07-02T09:47:16.466Z,23.12
2018-07-02T09:48:16.724Z,22.96
2018-07-02T09:49:16.997Z,24.16
2018-07-02T09:50:16.505Z,23.02
2018-07-02T09:51:16.536Z,23.61
2018-07-02T09:52:16.797Z,22.78
2018-07-02T09:53:17.062Z,22.95
2018-07-02T09:54:16.319Z,23.75
2018-07-02T09:55:16.600Z,24.08
2018-07-02T09:56:16.864Z,22.70
2018-07-02T09:57:17.127Z,22.57
2018-07-02T09:58:16.382Z,22.70
2018-07-02T09:59:16.636Z,22.54
2018-07-02T10:00:16.918Z,22.71
2018-07-02T10:01:16.965Z,23.32
2018-07-02T10:02:16.233Z,24.13
2018-07-02T10:03:16.770Z,24.24
2018-07-02T10:04:17.039Z,24.19
2018-07-02T10:05:16.298Z,24.24
2018-07-02T10:06:16.590Z,24.20
2018-07-02T10:07:16.890Z,24.11
2018-07-02T10:08:17.145Z,24.13
2018-07-02T10:09:16.398Z,24.05
2018-07-02T10:10:16.680Z,23.67
2018-07-02T10:11:16.699Z,22.83
2018-07-02T10:12:16.964Z,22.53
2018-07-02T10:13:16.224Z,22.54
2018-07-02T10:14:16.485Z,22.58
2018-07-02T10:15:16.748Z,21.82
2018-07-02T10:16:17.010Z,22.21
2018-07-02T10:17:16.268Z,22.78
2018-07-02T10:18:16.530Z,23.36
2018-07-02T10:19:16.795Z,23.64
2018-07-02T10:20:17.120Z,23.44
2018-07-02T10:21:17.111Z,21.96
2018-07-02T10:22:16.377Z,22.26
2018-07-02T10:23:16.636Z,21.99
2018-07-02T10:24:16.895Z,22.09
2018-07-02T10:25:17.157Z,22.37
2018-07-02T10:26:16.419Z,22.61
2018-07-02T10:27:16.678Z,22.81
2018-07-02T10:28:16.939Z,23.20
2018-07-02T10:29:16.232Z,23.25
2018-07-02T10:30:16.590Z,23.07
2018-07-02T10:31:16.694Z,22.51
2018-07-02T10:32:17.192Z,22.51
2018-07-02T10:33:16.480Z,22.40
2018-07-02T10:34:16.739Z,22.26
2018-07-02T10:35:16.994Z,22.74
2018-07-02T10:36:16.251Z,22.41
2018-07-02T10:37:16.519Z,23.27
2018-07-02T10:38:16.782Z,23.50
2018-07-02T10:39:17.046Z,23.30
2018-07-02T10:40:16.375Z,22.51
2018-07-02T10:41:16.405Z,22.30
2018-07-02T10:42:16.662Z,22.61
2018-07-02T10:43:16.924Z,23.18
2018-07-02T10:44:17.194Z,22.75
2018-07-02T10:45:16.465Z,22.88
2018-07-02T10:46:16.722Z,23.47
2018-07-02T10:47:16.985Z,23.25
2018-07-02T10:48:16.244Z,22.78
2018-07-02T10:49:16.507Z,22.79
2018-07-02T10:50:16.819Z,22.99
2018-07-02T10:51:16.822Z,23.02
2018-07-02T10:52:17.085Z,22.95
2018-07-02T10:53:16.364Z,22.54
2018-07-02T10:54:16.631Z,22.88
2018-07-02T10:55:16.889Z,23.00
2018-07-02T10:56:17.152Z,23.43
2018-07-02T10:57:16.411Z,23.50
2018-07-02T10:58:16.664Z,23.62
2018-07-02T10:59:16.932Z,23.51
2018-07-02T11:00:17.206Z,23.39
2018-07-02T11:01:16.296Z,23.64
2018-07-02T11:02:16.593Z,23.67
2018-07-02T11:03:16.871Z,23.37
2018-07-02T11:04:17.131Z,23.03
2018-07-02T11:05:16.392Z,23.13
2018-07-02T11:06:16.655Z,23.56
2018-07-02T11:07:16.913Z,23.39
2018-07-02T11:08:17.176Z,23.10
2018-07-02T11:09:16.433Z,23.09
2018-07-02T11:10:16.706Z,23.03
2018-07-02T11:11:16.809Z,22.60
2018-07-02T11:12:16.236Z,22.62
2018-07-02T11:13:16.495Z,22.54
2018-07-02T11:14:16.761Z,22.05
2018-07-02T11:15:17.029Z,21.89
2018-07-02T11:16:16.305Z,22.21
2018-07-02T11:17:16.564Z,22.65
2018-07-02T11:18:16.828Z,22.58
2018-07-02T11:19:17.093Z,22.50
2018-07-02T11:20:16.359Z,22.15
2018-07-02T11:21:16.421Z,22.23
2018-07-02T11:22:16.684Z,22.31
2018-07-02T11:23:16.937Z,22.15
2018-07-02T11:24:16.202Z,22.34
2018-07-02T11:25:16.478Z,23.43
2018-07-02T11:26:16.734Z,23.54
2018-07-02T11:27:16.992Z,24.12
2018-07-02T11:28:16.277Z,24.08
2018-07-02T11:29:16.540Z,23.60
2018-07-02T11:30:16.820Z,23.43
2018-07-02T11:31:16.840Z,23.18
2018-07-02T11:32:17.095Z,22.86
2018-07-02T11:33:16.349Z,23.12
2018-07-02T11:34:16.605Z,23.53
2018-07-02T11:35:16.860Z,24.05
2018-07-02T11:36:17.134Z,24.02
2018-07-02T11:37:16.388Z,23.60
2018-07-02T11:38:16.651Z,23.91
2018-07-02T11:39:16.918Z,24.36
2018-07-02T11:40:17.182Z,24.05
2018-07-02T11:41:16.218Z,23.91
2018-07-02T11:42:16.485Z,24.02
2018-07-02T11:43:16.747Z,24.02
2018-07-02T11:44:17.013Z,23.96
2018-07-02T11:45:16.288Z,24.19
2018-07-02T11:46:16.552Z,24.15
2018-07-02T11:47:16.813Z,24.05
2018-07-02T11:48:17.082Z,23.81
2018-07-02T11:49:16.339Z,23.83
2018-07-02T11:50:16.621Z,23.80
2018-07-02T11:51:16.670Z,24.16
2018-07-02T11:52:16.939Z,24.60
2018-07-02T11:53:17.189Z,24.99
2018-07-02T11:54:16.471Z,24.81
2018-07-02T11:55:16.726Z,24.50
2018-07-02T11:56:16.988Z,24.13
2018-07-02T11:57:16.268Z,24.15
2018-07-02T11:58:16.533Z,24.20
2018-07-02T11:59:16.792Z,24.67
2018-07-02T12:00:17.078Z,23.91
2018-07-02T12:01:17.108Z,23.96
2018-07-02T12:02:16.369Z,24.46
2018-07-02T12:03:16.630Z,24.43
2018-07-02T12:04:16.901Z,23.92
2018-07-02T12:05:16.300Z,23.60
2018-07-02T12:06:16.579Z,23.75
2018-07-02T12:07:17.077Z,23.48
2018-07-02T12:08:16.349Z,23.94
2018-07-02T12:09:16.607Z,24.24
2018-07-02T12:10:16.879Z,24.12
2018-07-02T12:11:16.907Z,24.31
2018-07-02T12:12:17.165Z,24.15
2018-07-02T12:13:16.430Z,24.12
2018-07-02T12:14:16.687Z,24.13
2018-07-02T12:15:16.978Z,24.02
2018-07-02T12:16:16.255Z,23.58
2018-07-02T12:17:16.516Z,23.87
2018-07-02T12:18:16.780Z,23.53
2018-07-02T12:19:17.045Z,23.85
2018-07-02T12:20:16.312Z,24.06
2018-07-02T12:21:16.367Z,23.81
2018-07-02T12:22:16.636Z,23.74
2018-07-02T12:23:16.899Z,23.46
2018-07-02T12:24:17.167Z,23.30
2018-07-02T12:25:16.424Z,23.19
2018-07-02T12:26:16.710Z,23.27
2018-07-02T12:27:17.122Z,23.56
2018-07-02T12:28:16.381Z,23.56
2018-07-02T12:29:16.640Z,23.75
2018-07-02T12:30:16.913Z,24.09
2018-07-02T12:31:16.953Z,23.90
2018-07-02T12:32:16.224Z,23.85
2018-07-02T12:33:16.488Z,23.85
2018-07-02T12:34:16.757Z,23.74
2018-07-02T12:35:17.026Z,23.77
2018-07-02T12:36:16.284Z,23.84
2018-07-02T12:37:16.541Z,24.09
2018-07-02T12:38:16.801Z,24.36
2018-07-02T12:39:17.062Z,23.64
2018-07-02T12:40:16.329Z,23.33
2018-07-02T12:41:16.429Z,23.53
2018-07-02T12:42:16.715Z,23.81
2018-07-02T12:43:16.976Z,23.98
2018-07-02T12:44:16.239Z,23.88
2018-07-02T12:45:16.508Z,24.08
2018-07-02T12:46:16.771Z,24.27
2018-07-02T12:47:17.036Z,24.31
2018-07-02T12:48:16.308Z,24.46
2018-07-02T12:49:16.563Z,24.50
2018-07-02T12:50:16.816Z,24.48
2018-07-02T12:51:16.849Z,24.19
2018-07-02T12:52:17.120Z,24.05
2018-07-02T12:53:16.385Z,24.01
2018-07-02T12:54:16.693Z,24.01
2018-07-02T12:55:17.123Z,24.01
2018-07-02T12:56:16.386Z,23.85
2018-07-02T12:57:16.664Z,23.77